Time;durP1;ratioP1;P1;durP2;ratioP2;P2;SDS_P1;SDS_P2;PMS_P1;PMS_P2;Temp;Humidity;BMP_temperature;BMP_pressure;BME280_temperature;BME280_humidity;BME280_pressure;Samples;Min_cycle;Max_cycle;Signal;HPM_P1;HPM_P2
2022/01/04 00:01:59;;;;;;;0.22;0.20;;;17.20;55.90;;;;;;5098109;28;20012;-66
2022/01/04 00:04:25;;;;;;;0.60;0.50;;;17.20;55.40;;;;;;5098293;28;20024;-64
2022/01/04 00:06:50;;;;;;;0.80;0.40;;;17.20;55.40;;;;;;5098043;28;20023;-64
2022/01/04 00:09:17;;;;;;;1.20;0.30;;;17.20;55.40;;;;;;5096708;28;20134;-64
2022/01/04 00:11:57;;;;;;;0.80;0.30;;;17.20;55.40;;;;;;5097934;28;20016;-66
2022/01/04 00:14:23;;;;;;;0.73;0.50;;;17.20;55.30;;;;;;5096790;28;20028;-66
2022/01/04 00:16:50;;;;;;;0.68;0.40;;;17.20;55.40;;;;;;5096437;28;20027;-65
2022/01/04 00:19:17;;;;;;;0.38;0.20;;;17.20;55.40;;;;;;5095072;28;20013;-64
2022/01/04 00:21:43;;;;;;;1.20;0.47;;;17.20;55.30;;;;;;5096236;28;20017;-64
2022/01/04 00:24:10;;;;;;;0.52;0.30;;;17.20;55.30;;;;;;5096312;28;20016;-64
2022/01/04 00:26:36;;;;;;;0.55;0.20;;;17.20;55.30;;;;;;5095995;28;20020;-64
2022/01/04 00:29:02;;;;;;;0.60;0.43;;;17.20;55.30;;;;;;5096375;28;20035;-65
2022/01/04 00:31:28;;;;;;;0.68;0.40;;;17.20;55.40;;;;;;5096231;28;20486;-65
2022/01/04 00:33:55;;;;;;;0.40;0.30;;;17.20;55.40;;;;;;5096370;28;20028;-64
2022/01/04 00:36:25;;;;;;;0.20;0.20;;;17.20;55.30;;;;;;5096602;28;20016;-66
2022/01/04 00:38:51;;;;;;;0.50;0.50;;;17.20;55.30;;;;;;5096402;28;20024;-64
2022/01/04 00:41:18;;;;;;;0.73;0.28;;;17.20;55.40;;;;;;5096077;28;20012;-63
2022/01/04 00:43:45;;;;;;;0.30;0.25;;;17.20;55.40;;;;;;5095217;28;20103;-65
2022/01/04 00:46:16;;;;;;;0.52;0.30;;;17.20;55.30;;;;;;5096444;28;20024;-64
2022/01/04 00:49:27;;;;;;;0.82;0.50;;;17.20;55.30;;;;;;5096696;28;20008;-64
2022/01/04 00:51:28;;;;;;;0.60;0.43;;;17.20;55.20;;;;;;5092285;28;20032;-64
2022/01/04 00:53:54;;;;;;;0.30;0.30;;;17.20;55.20;;;;;;5094966;28;20117;-65
2022/01/04 00:56:19;;;;;;;0.65;0.40;;;17.30;55.30;;;;;;5094676;28;20036;-67
2022/01/04 00:58:46;;;;;;;0.32;0.30;;;17.30;55.30;;;;;;5096430;28;20012;-65
2022/01/04 01:01:13;;;;;;;0.70;0.40;;;17.30;55.20;;;;;;5095026;28;20020;-66
2022/01/04 01:03:41;;;;;;;0.60;0.40;;;17.30;55.20;;;;;;5096130;28;20024;-67
2022/01/04 01:06:07;;;;;;;0.50;0.45;;;17.30;55.30;;;;;;5096411;28;20020;-66
2022/01/04 01:08:33;;;;;;;1.10;0.50;;;17.30;55.30;;;;;;5095884;28;20055;-66
2022/01/04 01:10:59;;;;;;;0.50;0.30;;;17.20;55.20;;;;;;5095892;28;20032;-66
2022/01/04 01:13:26;;;;;;;0.90;0.50;;;17.30;55.30;;;;;;5095785;28;20032;-66
2022/01/04 01:15:52;;;;;;;0.57;0.30;;;17.30;55.20;;;;;;5096205;28;20106;-65
2022/01/04 01:18:19;;;;;;;3.47;0.38;;;17.20;55.20;;;;;;5095722;28;20134;-64
2022/01/04 01:20:47;;;;;;;0.85;0.30;;;17.30;55.30;;;;;;5095280;28;20153;-64
2022/01/04 01:23:13;;;;;;;0.40;0.40;;;17.30;55.20;;;;;;5095204;28;20099;-64
2022/01/04 01:25:38;;;;;;;0.30;0.25;;;17.30;55.20;;;;;;5094966;28;20423;-64
2022/01/04 01:28:05;;;;;;;0.50;0.40;;;17.30;55.20;;;;;;5095328;28;20024;-65
2022/01/04 01:30:34;;;;;;;0.88;0.40;;;17.30;55.20;;;;;;5095130;28;20028;-64
2022/01/04 01:33:00;;;;;;;0.60;0.32;;;17.30;55.20;;;;;;5093342;28;20024;-64
2022/01/04 01:35:25;;;;;;;0.63;0.32;;;17.30;55.10;;;;;;5094496;28;20023;-64
2022/01/04 01:37:52;;;;;;;0.52;0.40;;;17.30;55.10;;;;;;5094684;28;20031;-64
2022/01/04 01:40:18;;;;;;;0.40;0.30;;;17.30;55.20;;;;;;5094735;28;20035;-64
2022/01/04 01:42:44;;;;;;;0.50;0.38;;;17.30;55.20;;;;;;5094488;28;20462;-64
2022/01/04 01:45:10;;;;;;;0.63;0.32;;;17.30;55.10;;;;;;5094689;28;20070;-63
2022/01/04 01:47:38;;;;;;;0.63;0.32;;;17.30;55.20;;;;;;5094553;28;20012;-64
2022/01/04 01:50:04;;;;;;;2.80;0.50;;;17.30;55.20;;;;;;5094534;28;20016;-64
2022/01/04 01:52:30;;;;;;;0.20;0.20;;;17.30;55.20;;;;;;5093985;28;20105;-64
2022/01/04 01:54:56;;;;;;;0.20;0.20;;;17.30;55.20;;;;;;5094573;28;20125;-64
2022/01/04 01:57:24;;;;;;;0.28;0.20;;;17.30;55.20;;;;;;5094251;28;20494;-65
2022/01/04 01:59:50;;;;;;;0.45;0.40;;;17.30;55.10;;;;;;5094411;28;20020;-63
2022/01/04 02:02:15;;;;;;;0.57;0.28;;;17.30;55.00;;;;;;5093295;28;20534;-64
2022/01/04 02:04:42;;;;;;;0.45;0.40;;;17.30;55.10;;;;;;5095860;28;20026;-65
2022/01/04 02:07:08;;;;;;;0.40;0.38;;;17.30;55.10;;;;;;5077279;28;20042;-64
2022/01/04 02:09:36;;;;;;;1.55;0.40;;;17.40;55.10;;;;;;5093284;28;20064;-65
2022/01/04 02:12:02;;;;;;;0.30;0.30;;;17.40;55.00;;;;;;5093771;28;20021;-65
2022/01/04 02:14:29;;;;;;;0.40;0.35;;;17.40;55.00;;;;;;5094164;28;20028;-64
2022/01/04 02:16:56;;;;;;;0.70;0.30;;;17.30;55.00;;;;;;5094068;28;20047;-64
2022/01/04 02:19:22;;;;;;;0.50;0.40;;;17.30;55.10;;;;;;5093695;28;20489;-64
2022/01/04 02:21:48;;;;;;;3.33;0.47;;;17.40;55.10;;;;;;5093553;28;20016;-64
2022/01/04 02:24:14;;;;;;;0.28;0.20;;;17.40;55.00;;;;;;5093848;28;20026;-64
2022/01/04 02:26:40;;;;;;;0.63;0.30;;;17.40;55.00;;;;;;5093742;28;20048;-64
2022/01/04 02:29:07;;;;;;;0.38;0.30;;;17.40;55.10;;;;;;5092340;28;20379;-64
2022/01/04 02:31:34;;;;;;;0.55;0.28;;;17.40;55.00;;;;;;5093800;28;20023;-63
2022/01/04 02:34:00;;;;;;;0.50;0.38;;;17.40;55.00;;;;;;5093494;28;20039;-65
2022/01/04 02:36:26;;;;;;;0.40;0.30;;;17.40;55.00;;;;;;5093617;28;20082;-65
2022/01/04 02:38:52;;;;;;;0.30;0.20;;;17.40;55.00;;;;;;5093505;28;20090;-64
2022/01/04 02:41:18;;;;;;;0.15;0.15;;;17.40;55.00;;;;;;5093796;28;20028;-64
2022/01/04 02:43:44;;;;;;;0.60;0.30;;;17.40;55.00;;;;;;5093782;28;20017;-64
2022/01/04 02:46:10;;;;;;;0.47;0.30;;;17.40;55.00;;;;;;5093954;28;20028;-66
2022/01/04 02:48:43;;;;;;;0.75;0.30;;;17.40;55.10;;;;;;5093798;28;20056;-64
2022/01/04 02:51:10;;;;;;;0.70;0.30;;;17.40;55.00;;;;;;5093032;28;20023;-64
2022/01/04 02:53:36;;;;;;;0.30;0.30;;;17.30;55.00;;;;;;5094524;28;20012;-64
2022/01/04 02:56:03;;;;;;;0.63;0.30;;;17.40;55.10;;;;;;5093956;28;20414;-65
2022/01/04 02:58:29;;;;;;;0.30;0.30;;;17.40;55.10;;;;;;5094703;28;20012;-63
2022/01/04 03:00:55;;;;;;;0.65;0.40;;;17.40;55.10;;;;;;5093889;28;20107;-64
2022/01/04 03:03:22;;;;;;;0.30;0.30;;;17.40;55.10;;;;;;5093525;28;20085;-64
2022/01/04 03:05:48;;;;;;;0.85;0.30;;;17.40;55.00;;;;;;5092062;28;20481;-64
2022/01/04 03:08:14;;;;;;;0.15;0.15;;;17.40;55.00;;;;;;5093011;28;20044;-64
2022/01/04 03:10:40;;;;;;;0.50;0.30;;;17.40;55.00;;;;;;5093404;28;20644;-64
2022/01/04 03:13:07;;;;;;;0.25;0.20;;;17.40;55.00;;;;;;5092255;28;20058;-65
2022/01/04 03:15:33;;;;;;;0.20;0.17;;;17.50;55.00;;;;;;5093111;28;20047;-64
2022/01/04 03:18:00;;;;;;;0.40;0.20;;;17.40;54.90;;;;;;5092989;28;20012;-63
2022/01/04 03:20:26;;;;;;;0.57;0.20;;;17.40;55.00;;;;;;5094062;28;20020;-65
2022/01/04 03:22:52;;;;;;;0.40;0.35;;;17.40;55.00;;;;;;5097363;28;20098;-64
2022/01/04 03:25:19;;;;;;;0.60;0.30;;;17.40;55.00;;;;;;5097478;28;20036;-65
2022/01/04 03:27:45;;;;;;;0.63;0.30;;;17.40;54.90;;;;;;5097529;28;20016;-64
2022/01/04 03:30:12;;;;;;;0.38;0.38;;;17.50;55.00;;;;;;5097398;28;20085;-64
2022/01/04 03:32:38;;;;;;;0.20;0.20;;;17.40;55.00;;;;;;5096866;28;20036;-64
2022/01/04 03:35:05;;;;;;;0.50;0.30;;;17.40;55.00;;;;;;5097179;28;20024;-64
2022/01/04 03:37:31;;;;;;;0.47;0.30;;;17.40;55.00;;;;;;5097352;28;20073;-65
2022/01/04 03:39:58;;;;;;;0.50;0.32;;;17.40;54.90;;;;;;5097406;28;20023;-65
2022/01/04 03:42:27;;;;;;;0.25;0.25;;;17.50;55.00;;;;;;5098850;28;20028;-64
2022/01/04 03:44:53;;;;;;;0.55;0.30;;;17.50;54.90;;;;;;5098128;28;20017;-66
2022/01/04 03:47:19;;;;;;;0.30;0.20;;;17.40;54.90;;;;;;5097779;28;20364;-65
2022/01/04 03:49:46;;;;;;;0.50;0.30;;;17.40;55.00;;;;;;5096932;28;20088;-64
2022/01/04 03:52:12;;;;;;;0.47;0.30;;;17.40;55.00;;;;;;5097008;28;20016;-65
2022/01/04 03:54:38;;;;;;;0.63;0.30;;;17.50;55.00;;;;;;5096555;28;20028;-64
2022/01/04 03:57:04;;;;;;;0.30;0.30;;;17.50;55.00;;;;;;5096590;28;20031;-64
2022/01/04 03:59:30;;;;;;;0.30;0.30;;;17.50;55.00;;;;;;5096898;28;20551;-66
2022/01/04 04:01:56;;;;;;;0.40;0.40;;;17.50;54.90;;;;;;5096768;28;20016;-64
2022/01/04 04:04:22;;;;;;;0.70;0.40;;;17.50;55.00;;;;;;5095334;28;20054;-64
2022/01/04 04:06:49;;;;;;;0.40;0.30;;;17.50;54.90;;;;;;5096419;28;20028;-64
2022/01/04 04:09:16;;;;;;;0.77;0.50;;;17.50;54.90;;;;;;5096233;28;20048;-64
2022/01/04 04:11:42;;;;;;;0.30;0.30;;;17.50;55.00;;;;;;5096176;28;20474;-63
2022/01/04 04:14:09;;;;;;;0.60;0.30;;;17.50;54.90;;;;;;5096751;28;20043;-64
2022/01/04 04:16:35;;;;;;;1.33;0.38;;;17.50;54.90;;;;;;5096508;28;20383;-65
2022/01/04 04:19:02;;;;;;;0.17;0.15;;;17.50;54.80;;;;;;5096302;28;20164;-64
2022/01/04 04:21:28;;;;;;;0.32;0.22;;;17.50;54.90;;;;;;5096274;28;20017;-64
2022/01/04 04:23:54;;;;;;;0.30;0.20;;;17.50;54.90;;;;;;5096085;28;20390;-64
2022/01/04 04:26:21;;;;;;;0.38;0.30;;;17.50;54.90;;;;;;5096210;28;20042;-63
2022/01/04 04:28:48;;;;;;;0.10;0.10;;;17.50;54.90;;;;;;5096222;28;20012;-64
2022/01/04 04:31:14;;;;;;;0.55;0.32;;;17.50;54.90;;;;;;5095742;28;20021;-65
2022/01/04 04:33:40;;;;;;;0.20;0.20;;;17.50;54.90;;;;;;5096267;28;20644;-66
2022/01/04 04:36:08;;;;;;;0.85;0.40;;;17.50;54.90;;;;;;5096136;28;20087;-64
2022/01/04 04:38:33;;;;;;;0.40;0.20;;;17.50;54.90;;;;;;5096111;28;20028;-64
2022/01/04 04:40:59;;;;;;;0.30;0.22;;;17.50;54.90;;;;;;5094829;28;20348;-64
2022/01/04 04:43:26;;;;;;;0.60;0.35;;;17.50;54.80;;;;;;5095778;28;20097;-64
2022/01/04 04:45:51;;;;;;;0.35;0.30;;;17.50;54.80;;;;;;5077783;28;20024;-65
2022/01/04 04:48:17;;;;;;;0.40;0.20;;;17.50;54.90;;;;;;5095851;28;20385;-64
2022/01/04 04:50:43;;;;;;;0.95;0.20;;;17.50;54.80;;;;;;5094675;28;20029;-65
2022/01/04 04:53:08;;;;;;;0.50;0.30;;;17.50;54.90;;;;;;5094558;28;20398;-65
2022/01/04 04:55:34;;;;;;;0.25;0.20;;;17.50;54.90;;;;;;5095975;28;20028;-67
2022/01/04 04:58:01;;;;;;;0.73;0.40;;;17.50;54.90;;;;;;5095672;28;20020;-65
2022/01/04 05:00:28;;;;;;;0.80;0.20;;;17.50;54.90;;;;;;5095477;28;20113;-65
2022/01/04 05:02:54;;;;;;;0.30;0.20;;;17.50;54.90;;;;;;5095670;28;20137;-65
2022/01/04 05:05:20;;;;;;;0.40;0.20;;;17.60;54.80;;;;;;5095727;28;20016;-64
2022/01/04 05:07:47;;;;;;;0.20;0.20;;;17.60;54.80;;;;;;5095264;28;20040;-64
2022/01/04 05:10:13;;;;;;;0.45;0.30;;;17.60;54.80;;;;;;5095069;28;20012;-64
2022/01/04 05:12:39;;;;;;;0.30;0.30;;;17.60;54.80;;;;;;5095275;28;20097;-65
2022/01/04 05:15:05;;;;;;;0.28;0.25;;;17.60;54.70;;;;;;5095343;28;20023;-65
2022/01/04 05:17:32;;;;;;;0.32;0.30;;;17.60;54.80;;;;;;5095668;28;20043;-65
2022/01/04 05:19:59;;;;;;;0.30;0.30;;;17.60;54.80;;;;;;5096113;28;20026;-66
2022/01/04 05:22:25;;;;;;;0.73;0.30;;;17.60;54.70;;;;;;5098459;28;20492;-65
2022/01/04 05:24:52;;;;;;;0.77;0.40;;;17.60;54.80;;;;;;5098313;28;20012;-65
2022/01/04 05:27:19;;;;;;;0.40;0.30;;;17.60;54.70;;;;;;5095905;28;20012;-63
2022/01/04 05:29:46;;;;;;;0.50;0.30;;;17.60;54.80;;;;;;5095280;28;20034;-64
2022/01/04 05:32:12;;;;;;;0.40;0.30;;;17.60;54.80;;;;;;5095056;28;20370;-64
2022/01/04 05:34:38;;;;;;;0.30;0.30;;;17.60;54.80;;;;;;5095375;28;20020;-65
2022/01/04 05:37:05;;;;;;;1.70;0.50;;;17.60;54.80;;;;;;5095450;28;20493;-64
2022/01/04 05:39:30;;;;;;;0.50;0.40;;;17.60;54.80;;;;;;5093664;28;20044;-64
2022/01/04 05:41:57;;;;;;;0.70;0.40;;;17.50;54.80;;;;;;5095120;28;20008;-64
2022/01/04 05:44:22;;;;;;;0.60;0.30;;;17.60;54.80;;;;;;5093648;28;20020;-63
2022/01/04 05:46:48;;;;;;;0.45;0.30;;;17.60;54.80;;;;;;5093369;28;20059;-64
2022/01/04 05:49:14;;;;;;;0.43;0.30;;;17.60;54.90;;;;;;5094602;28;20059;-64
2022/01/04 05:51:42;;;;;;;0.45;0.40;;;17.60;54.80;;;;;;5093336;28;20100;-64
2022/01/04 05:54:08;;;;;;;0.68;0.40;;;17.60;54.80;;;;;;5093413;28;20145;-64
2022/01/04 05:56:34;;;;;;;0.30;0.30;;;17.60;54.90;;;;;;5093153;28;20530;-65
2022/01/04 05:59:00;;;;;;;0.30;0.20;;;17.60;54.80;;;;;;5093545;28;20020;-65
2022/01/04 06:01:26;;;;;;;0.30;0.25;;;17.60;54.80;;;;;;5094533;28;20012;-64
2022/01/04 06:03:53;;;;;;;0.20;0.15;;;17.60;54.80;;;;;;5093333;28;20020;-64
2022/01/04 06:06:19;;;;;;;0.25;0.20;;;17.60;54.70;;;;;;5094107;28;20106;-64
2022/01/04 06:08:46;;;;;;;0.47;0.30;;;17.60;54.80;;;;;;5092629;28;20048;-64
2022/01/04 06:12:00;;;;;;;0.60;0.50;;;17.60;54.80;;;;;;5092774;28;20024;-64
2022/01/04 06:16:42;;;;;;;0.30;0.30;;;17.60;54.90;;;;;;5094503;28;20023;-65
2022/01/04 06:19:08;;;;;;;0.30;0.30;;;17.50;54.90;;;;;;5093223;28;20020;-64
2022/01/04 06:21:35;;;;;;;0.17;0.17;;;17.50;55.10;;;;;;5094641;28;20024;-64
2022/01/04 06:24:01;;;;;;;0.68;0.35;;;17.50;55.10;;;;;;5094376;28;20017;-65
2022/01/04 06:26:27;;;;;;;0.57;0.40;;;17.50;55.10;;;;;;5093405;28;20020;-64
2022/01/04 06:28:53;;;;;;;0.57;0.30;;;17.50;55.20;;;;;;5094134;28;20032;-63
2022/01/04 06:31:19;;;;;;;0.43;0.30;;;17.40;55.20;;;;;;5093741;28;20024;-64
2022/01/04 06:33:45;;;;;;;0.60;0.50;;;17.40;55.30;;;;;;5093644;28;20417;-63
2022/01/04 06:36:13;;;;;;;0.98;0.50;;;17.50;55.30;;;;;;5092350;28;20016;-64
2022/01/04 06:38:39;;;;;;;0.50;0.40;;;17.40;55.20;;;;;;5093725;28;20016;-64
2022/01/04 06:41:05;;;;;;;0.70;0.30;;;17.30;55.40;;;;;;5093529;28;20028;-64
2022/01/04 06:43:31;;;;;;;0.57;0.25;;;17.30;55.40;;;;;;5092345;28;20024;-64
2022/01/04 06:45:57;;;;;;;0.40;0.25;;;17.30;55.50;;;;;;5093613;28;20022;-64
2022/01/04 06:48:23;;;;;;;0.88;0.30;;;17.30;55.60;;;;;;5093371;28;20468;-65
2022/01/04 06:50:49;;;;;;;0.50;0.30;;;17.30;55.70;;;;;;5092337;28;20099;-64
2022/01/04 06:53:15;;;;;;;0.35;0.35;;;17.30;55.70;;;;;;5093349;28;20543;-64
2022/01/04 06:55:42;;;;;;;0.47;0.40;;;17.20;55.70;;;;;;5093144;28;20024;-64
2022/01/04 06:58:07;;;;;;;0.10;0.10;;;17.20;55.80;;;;;;5092062;28;20111;-64
2022/01/04 07:00:33;;;;;;;0.40;0.30;;;17.20;55.80;;;;;;5094700;28;20056;-64
2022/01/04 07:02:59;;;;;;;0.73;0.40;;;17.30;55.80;;;;;;5094781;28;20016;-65
2022/01/04 07:05:24;;;;;;;1.00;0.40;;;17.20;55.90;;;;;;5095036;28;20024;-63
2022/01/04 07:07:50;;;;;;;0.20;0.20;;;17.20;55.90;;;;;;5094469;28;20083;-65
2022/01/04 07:10:16;;;;;;;0.50;0.35;;;17.20;55.90;;;;;;5076151;28;20031;-65
2022/01/04 07:12:42;;;;;;;0.68;0.50;;;17.10;56.00;;;;;;5092710;28;20493;-66
2022/01/04 07:15:08;;;;;;;0.30;0.30;;;17.10;56.10;;;;;;5093784;28;20062;-65
2022/01/04 07:17:38;;;;;;;0.38;0.30;;;17.10;56.20;;;;;;5092012;28;20077;-65
2022/01/04 07:20:04;;;;;;;1.08;0.50;;;17.10;56.10;;;;;;5093453;28;20087;-65
2022/01/04 07:22:30;;;;;;;1.23;0.47;;;17.00;56.40;;;;;;5093122;28;20022;-64
2022/01/04 07:24:56;;;;;;;0.63;0.40;;;17.00;56.60;;;;;;5093239;28;20445;-64
2022/01/04 07:27:22;;;;;;;0.70;0.40;;;17.00;56.50;;;;;;5093600;28;20012;-65
2022/01/04 07:29:48;;;;;;;0.47;0.40;;;17.00;56.20;;;;;;5093888;28;20355;-64
2022/01/04 07:32:14;;;;;;;0.38;0.38;;;17.10;56.20;;;;;;5094097;28;20099;-65
2022/01/04 07:34:40;;;;;;;0.57;0.50;;;17.00;56.20;;;;;;5093825;28;20031;-65
2022/01/04 07:37:06;;;;;;;0.38;0.35;;;17.10;56.30;;;;;;5092174;28;20012;-65
2022/01/04 07:39:32;;;;;;;0.38;0.38;;;17.00;56.20;;;;;;5093574;28;20437;-66
2022/01/04 07:41:59;;;;;;;0.73;0.40;;;17.00;56.80;;;;;;5093212;28;20027;-65
2022/01/04 07:44:25;;;;;;;0.55;0.43;;;17.00;56.40;;;;;;5093386;28;20024;-65
2022/01/04 07:46:51;;;;;;;0.47;0.47;;;17.00;56.40;;;;;;5093313;28;20103;-65
2022/01/04 07:49:17;;;;;;;0.40;0.40;;;17.00;56.40;;;;;;5093151;28;20525;-64
2022/01/04 07:51:42;;;;;;;0.40;0.40;;;16.90;56.40;;;;;;5092873;28;20521;-64
2022/01/04 07:54:08;;;;;;;1.02;0.50;;;16.90;56.40;;;;;;5092548;28;20028;-65
2022/01/04 07:56:35;;;;;;;1.00;0.47;;;17.00;56.40;;;;;;5093039;28;20040;-64
2022/01/04 07:59:01;;;;;;;0.40;0.30;;;16.90;56.50;;;;;;5092910;28;20016;-64
2022/01/04 08:01:30;;;;;;;1.60;0.55;;;17.00;56.60;;;;;;5091844;28;20012;-63
2022/01/04 08:03:57;;;;;;;1.83;0.40;;;16.90;56.50;;;;;;5093373;28;20031;-64
2022/01/04 08:06:23;;;;;;;0.47;0.40;;;16.90;57.00;;;;;;5094029;28;20046;-65
2022/01/04 08:08:49;;;;;;;0.47;0.40;;;16.90;56.60;;;;;;5095446;28;20052;-64
2022/01/04 08:11:15;;;;;;;0.90;0.35;;;16.90;56.60;;;;;;5095472;28;20023;-64
2022/01/04 08:13:42;;;;;;;0.60;0.40;;;16.90;56.70;;;;;;5096662;28;20024;-65
2022/01/04 08:16:08;;;;;;;0.63;0.40;;;16.90;56.70;;;;;;5096423;28;20019;-64
2022/01/04 08:18:34;;;;;;;1.13;0.43;;;16.80;56.80;;;;;;5095265;28;20046;-64
2022/01/04 08:21:04;;;;;;;1.10;0.50;;;16.80;57.30;;;;;;5096122;28;20020;-64
2022/01/04 08:23:30;;;;;;;0.50;0.40;;;16.80;56.80;;;;;;5096272;28;20031;-63
2022/01/04 08:25:56;;;;;;;0.73;0.40;;;16.80;57.00;;;;;;5096034;28;20103;-64
2022/01/04 08:28:22;;;;;;;0.75;0.45;;;16.80;56.90;;;;;;5096325;28;20059;-64
2022/01/04 08:30:47;;;;;;;0.57;0.50;;;16.80;56.90;;;;;;5096242;28;20055;-64
2022/01/04 08:33:13;;;;;;;1.05;0.50;;;16.80;56.90;;;;;;5094727;28;20028;-64
2022/01/04 08:35:39;;;;;;;1.02;0.65;;;16.80;57.00;;;;;;5094870;28;20020;-66
2022/01/04 08:38:06;;;;;;;0.98;0.50;;;16.80;57.10;;;;;;5094897;28;20099;-66
2022/01/04 08:40:32;;;;;;;0.85;0.60;;;16.70;57.10;;;;;;5095828;28;20016;-64
2022/01/04 08:42:57;;;;;;;0.38;0.30;;;16.70;57.10;;;;;;5094461;28;20024;-64
2022/01/04 08:45:24;;;;;;;0.95;0.60;;;16.70;57.20;;;;;;5096071;28;20024;-64
2022/01/04 08:47:51;;;;;;;0.60;0.50;;;16.70;57.20;;;;;;5096067;28;20479;-64
2022/01/04 08:50:17;;;;;;;0.82;0.50;;;16.70;57.20;;;;;;5094855;28;20077;-64
2022/01/04 08:52:44;;;;;;;0.52;0.40;;;16.60;57.20;;;;;;5096169;28;20020;-64
2022/01/04 08:55:10;;;;;;;0.77;0.43;;;16.60;57.30;;;;;;5094791;28;20021;-64
2022/01/04 08:57:36;;;;;;;0.57;0.50;;;16.60;57.50;;;;;;5094608;28;20075;-65
2022/01/04 09:00:05;;;;;;;0.50;0.40;;;16.60;57.40;;;;;;5094394;28;20016;-63
2022/01/04 09:02:33;;;;;;;0.57;0.30;;;16.50;57.50;;;;;;5095715;28;20023;-65
2022/01/04 09:04:59;;;;;;;0.80;0.50;;;16.60;57.60;;;;;;5095396;28;20012;-65
2022/01/04 09:07:25;;;;;;;1.08;0.55;;;16.60;57.60;;;;;;5094332;28;20023;-64
2022/01/04 09:09:51;;;;;;;0.47;0.40;;;16.50;57.70;;;;;;5094395;28;20020;-66
2022/01/04 09:12:19;;;;;;;0.43;0.40;;;16.50;57.70;;;;;;5095692;28;20376;-64
2022/01/04 09:20:04;;;;;;;0.93;0.40;;;16.50;57.80;;;;;;5096344;28;20027;-64
2022/01/04 09:22:30;;;;;;;0.38;0.38;;;16.50;57.90;;;;;;5095937;28;20016;-63
2022/01/04 09:24:56;;;;;;;0.60;0.60;;;16.40;57.90;;;;;;5096343;28;20057;-64
2022/01/04 09:27:22;;;;;;;1.00;0.50;;;16.40;58.00;;;;;;5094604;28;20023;-64
2022/01/04 09:29:50;;;;;;;0.85;0.50;;;16.40;58.00;;;;;;5096127;28;20024;-64
2022/01/04 09:32:17;;;;;;;0.55;0.40;;;16.40;58.00;;;;;;5094555;28;20019;-63
2022/01/04 09:34:45;;;;;;;0.77;0.50;;;16.40;58.10;;;;;;5094689;28;20031;-64
2022/01/04 09:37:11;;;;;;;0.85;0.50;;;16.40;58.10;;;;;;5094703;28;20023;-64
2022/01/04 09:39:37;;;;;;;0.77;0.70;;;16.40;58.20;;;;;;5096195;28;20012;-64
2022/01/04 09:42:03;;;;;;;0.45;0.45;;;16.40;58.20;;;;;;5096158;28;20024;-64
2022/01/04 09:44:30;;;;;;;0.77;0.50;;;16.40;58.10;;;;;;5095904;28;20020;-63
2022/01/04 09:46:58;;;;;;;1.10;0.60;;;16.40;58.10;;;;;;5094851;28;20024;-63
2022/01/04 09:49:24;;;;;;;0.50;0.50;;;16.40;58.00;;;;;;5094664;28;20020;-64
2022/01/04 09:51:50;;;;;;;0.70;0.40;;;16.30;58.10;;;;;;5094569;28;20069;-64
2022/01/04 09:54:20;;;;;;;0.52;0.40;;;16.40;58.10;;;;;;5094524;28;20027;-64
2022/01/04 09:56:47;;;;;;;1.50;0.65;;;16.40;58.10;;;;;;5094996;28;20030;-64
2022/01/04 09:59:13;;;;;;;1.30;0.50;;;16.40;58.00;;;;;;5094652;28;20031;-64
2022/01/04 10:01:39;;;;;;;0.88;0.50;;;16.40;58.10;;;;;;5093394;28;20016;-64
2022/01/04 10:04:05;;;;;;;0.65;0.35;;;16.40;58.10;;;;;;5094426;28;20020;-64
2022/01/04 10:06:31;;;;;;;0.60;0.50;;;16.40;58.10;;;;;;5094901;28;20070;-64
2022/01/04 10:09:08;;;;;;;0.80;0.47;;;16.40;58.00;;;;;;5093480;28;20101;-64
2022/01/04 10:11:36;;;;;;;0.73;0.50;;;16.40;58.20;;;;;;5095040;28;20012;-64
2022/01/04 10:14:22;;;;;;;0.65;0.55;;;16.30;58.20;;;;;;5095126;28;20024;-64
2022/01/04 10:16:56;;;;;;;0.55;0.40;;;16.30;58.20;;;;;;5096019;28;20498;-65
2022/01/04 10:19:29;;;;;;;1.30;0.73;;;16.30;58.10;;;;;;5095170;28;20464;-65
2022/01/04 10:22:14;;;;;;;1.00;0.50;;;16.30;58.10;;;;;;5094978;28;20012;-65
2022/01/04 10:24:39;;;;;;;1.02;0.50;;;16.30;58.20;;;;;;5094924;28;20024;-65
2022/01/04 10:27:28;;;;;;;0.70;0.40;;;16.40;58.10;;;;;;5095327;28;20425;-66
2022/01/04 10:30:16;;;;;;;0.63;0.50;;;16.30;58.10;;;;;;5094608;28;20077;-65
2022/01/04 10:32:45;;;;;;;1.13;0.55;;;16.30;58.20;;;;;;5094787;28;20031;-65
2022/01/04 10:35:34;;;;;;;1.33;0.60;;;16.30;58.20;;;;;;5095001;28;20032;-65
2022/01/04 10:38:09;;;;;;;0.85;0.50;;;16.30;58.20;;;;;;5093999;28;20016;-66
2022/01/04 10:40:35;;;;;;;1.10;0.60;;;16.30;58.20;;;;;;5093724;28;20027;-65
2022/01/04 10:43:18;;;;;;;0.50;0.50;;;16.30;58.20;;;;;;5093965;28;20016;-65
2022/01/04 10:45:44;;;;;;;4.43;1.40;;;16.30;58.30;;;;;;5093755;28;20024;-65
2022/01/04 10:48:14;;;;;;;7.57;1.73;;;16.30;58.30;;;;;;5093480;28;20017;-65
2022/01/04 10:50:40;;;;;;;6.45;2.05;;;16.40;58.50;;;;;;5093530;28;20024;-66
2022/01/04 10:53:13;;;;;;;6.80;3.10;;;16.40;58.60;;;;;;5092280;28;20024;-65
2022/01/04 10:55:39;;;;;;;6.80;2.15;;;16.30;58.40;;;;;;5092480;28;20081;-63
2022/01/04 10:58:05;;;;;;;7.18;1.98;;;16.30;58.80;;;;;;5092355;28;20463;-63
2022/01/04 11:00:31;;;;;;;5.10;2.33;;;16.30;58.70;;;;;;5093968;28;20044;-64
2022/01/04 11:03:02;;;;;;;6.47;2.50;;;16.30;58.60;;;;;;5093867;28;20023;-63
2022/01/04 11:05:29;;;;;;;10.02;2.90;;;16.30;58.70;;;;;;5092669;28;20016;-63
2022/01/04 11:08:05;;;;;;;6.25;2.53;;;16.30;58.70;;;;;;5093143;28;20105;-64
2022/01/04 11:10:34;;;;;;;5.60;2.90;;;16.30;58.70;;;;;;5093789;28;20028;-63
2022/01/04 11:13:00;;;;;;;8.63;2.78;;;16.20;58.50;;;;;;5093872;28;20030;-65
2022/01/04 11:15:26;;;;;;;7.70;2.90;;;16.20;58.50;;;;;;5094188;28;20416;-64
2022/01/04 11:17:52;;;;;;;7.40;2.83;;;16.20;58.40;;;;;;5094129;28;21080;-64
2022/01/04 11:20:19;;;;;;;8.40;3.20;;;16.20;58.30;;;;;;5075816;28;20378;-64
2022/01/04 11:22:46;;;;;;;7.82;2.80;;;16.20;58.40;;;;;;5093578;28;20467;-63
2022/01/04 11:25:12;;;;;;;6.55;3.28;;;16.20;58.30;;;;;;5093955;28;20039;-64
2022/01/04 11:27:38;;;;;;;4.22;3.05;;;16.20;58.30;;;;;;5075989;28;20013;-64
2022/01/04 11:30:06;;;;;;;11.73;3.40;;;16.20;58.30;;;;;;5092247;28;20039;-64
2022/01/04 11:32:32;;;;;;;8.05;3.63;;;16.20;58.30;;;;;;5075557;28;20024;-64
2022/01/04 11:35:12;;;;;;;10.38;3.70;;;16.20;58.30;;;;;;5092306;28;20024;-64
2022/01/04 11:37:41;;;;;;;5.80;3.65;;;16.20;58.20;;;;;;5093449;28;20061;-65
2022/01/04 11:40:22;;;;;;;12.63;3.47;;;16.20;58.30;;;;;;5093754;28;20095;-64
2022/01/04 11:42:48;;;;;;;9.43;3.10;;;16.10;58.20;;;;;;5096179;28;20051;-65
2022/01/04 11:45:15;;;;;;;13.27;3.80;;;16.20;58.30;;;;;;5096880;28;20060;-64
2022/01/04 11:47:46;;;;;;;6.95;3.17;;;16.20;58.30;;;;;;5096918;28;20085;-64
2022/01/04 11:50:24;;;;;;;7.55;3.53;;;16.10;58.20;;;;;;5096760;28;20008;-63
2022/01/04 11:52:56;;;;;;;10.93;3.83;;;16.10;58.30;;;;;;5095685;28;20024;-64
2022/01/04 11:55:31;;;;;;;6.82;3.28;;;16.10;58.20;;;;;;5096766;28;20004;-64
2022/01/04 11:58:09;;;;;;;11.32;3.92;;;16.10;58.20;;;;;;5096520;28;20040;-63
2022/01/04 12:00:40;;;;;;;12.23;4.40;;;16.10;58.20;;;;;;5096796;28;20091;-64
2022/01/04 12:03:08;;;;;;;8.40;3.35;;;16.10;58.20;;;;;;5096426;28;20013;-64
2022/01/04 12:05:35;;;;;;;7.85;3.70;;;16.10;58.20;;;;;;5096825;28;20016;-64
2022/01/04 12:08:21;;;;;;;8.60;4.00;;;16.10;58.20;;;;;;5095241;28;20517;-63
2022/01/04 12:10:51;;;;;;;9.10;3.67;;;16.10;58.20;;;;;;5095951;28;20032;-64
2022/01/04 12:13:20;;;;;;;10.82;3.78;;;16.10;58.20;;;;;;5096606;28;20020;-64
2022/01/04 12:16:56;;;;;;;7.30;3.58;;;16.10;58.70;;;;;;5096623;28;20062;-64
2022/01/04 12:19:23;;;;;;;8.65;3.75;;;16.10;59.40;;;;;;5028368;28;20033;-63
2022/01/04 12:21:54;;;;;;;10.57;4.10;;;16.00;59.70;;;;;;5001307;28;20029;-64
2022/01/04 12:24:24;;;;;;;9.40;3.55;;;16.00;59.70;;;;;;5017834;28;20056;-65
2022/01/04 12:27:06;;;;;;;9.90;3.95;;;16.00;58.90;;;;;;5033954;28;20052;-66
2022/01/04 12:29:33;;;;;;;8.25;4.10;;;16.00;58.90;;;;;;5034116;28;20027;-63
2022/01/04 12:32:02;;;;;;;8.30;4.15;;;16.00;58.70;;;;;;5017089;28;20033;-63
2022/01/04 12:34:37;;;;;;;17.20;4.10;;;16.10;60.20;;;;;;5017515;28;20037;-64
2022/01/04 12:37:05;;;;;;;18.85;4.45;;;16.20;60.80;;;;;;5033480;28;20034;-62
2022/01/04 12:39:39;;;;;;;12.88;4.40;;;16.20;61.60;;;;;;5033501;28;20095;-62
2022/01/04 12:42:05;;;;;;;16.95;5.03;;;16.20;61.50;;;;;;5033228;28;20060;-63
2022/01/04 12:44:31;;;;;;;20.20;4.80;;;16.20;60.90;;;;;;5033255;28;20037;-62
2022/01/04 12:46:58;;;;;;;17.65;4.72;;;16.10;60.90;;;;;;5016776;28;20029;-61
2022/01/04 12:49:24;;;;;;;18.30;4.78;;;16.10;61.10;;;;;;5046116;28;20028;-61
2022/01/04 12:51:53;;;;;;;32.30;4.93;;;16.10;62.40;;;;;;5095443;28;20046;-63
2022/01/04 12:54:24;;;;;;;16.98;4.60;;;16.20;62.60;;;;;;5095505;28;20020;-63
2022/01/04 12:56:54;;;;;;;18.15;5.13;;;16.10;62.80;;;;;;5095658;28;20008;-63